createdAt,value
2019-02-05T00:00:52.399Z,15.20
2019-02-05T00:03:24.065Z,17.53
2019-02-05T00:05:55.718Z,17.27
2019-02-05T00:08:27.280Z,15.67
2019-02-05T00:10:59.149Z,15.27
2019-02-05T00:13:30.828Z,16.53
2019-02-05T00:16:02.499Z,16.90
2019-02-05T00:18:34.079Z,15.90
2019-02-05T00:21:05.653Z,14.27
2019-02-05T00:23:37.522Z,15.90
2019-02-05T00:26:09.105Z,16.23
2019-02-05T00:28:40.733Z,16.30
2019-02-05T00:31:12.368Z,16.47
2019-02-05T00:33:43.940Z,15.50
2019-02-05T00:36:15.805Z,18.50
2019-02-05T00:38:47.350Z,16.97
2019-02-05T00:41:18.927Z,15.07
2019-02-05T00:43:50.508Z,16.47
2019-02-05T00:46:22.096Z,15.97
2019-02-05T00:48:53.948Z,14.53
2019-02-05T00:51:25.526Z,16.73
2019-02-05T00:53:57.110Z,14.27
2019-02-05T00:56:28.682Z,15.83
2019-02-05T00:59:00.710Z,12.40
2019-02-05T01:01:33.084Z,12.50
2019-02-05T01:04:04.666Z,15.13
2019-02-05T01:06:36.222Z,13.97
2019-02-05T01:09:08.480Z,12.80
2019-02-05T01:11:40.112Z,14.77
2019-02-05T01:14:11.820Z,9.30
2019-02-05T01:16:43.432Z,14.03
2019-02-05T01:19:15.089Z,12.83
2019-02-05T01:21:46.647Z,12.37
2019-02-05T01:24:18.261Z,12.70
2019-02-05T01:26:49.826Z,11.63
2019-02-05T01:29:21.449Z,11.57
2019-02-05T01:31:53.036Z,13.00
2019-02-05T01:34:24.734Z,10.90
2019-02-05T01:36:56.378Z,13.53
2019-02-05T01:39:27.952Z,12.67
2019-02-05T01:41:59.607Z,13.57
2019-02-05T01:44:31.168Z,13.40
2019-02-05T01:47:02.738Z,14.00
2019-02-05T01:49:34.321Z,14.77
2019-02-05T01:52:05.904Z,13.50
2019-02-05T01:54:37.459Z,13.40
2019-02-05T01:57:09.040Z,12.70
2019-02-05T01:59:40.633Z,12.27
2019-02-05T02:02:12.205Z,11.80
2019-02-05T02:04:44.951Z,13.93
2019-02-05T02:07:16.502Z,12.07
2019-02-05T02:09:48.125Z,11.73
2019-02-05T02:12:19.694Z,11.50
2019-02-05T02:14:51.323Z,12.93
2019-02-05T02:17:22.890Z,14.33
2019-02-05T02:19:54.541Z,12.87
2019-02-05T02:22:26.119Z,14.77
2019-02-05T02:24:57.704Z,13.40
2019-02-05T02:27:29.279Z,17.40
2019-02-05T02:30:00.875Z,16.63
2019-02-05T02:32:32.516Z,12.50
2019-02-05T02:35:04.740Z,13.87
2019-02-05T02:37:36.305Z,16.90
2019-02-05T02:40:10.467Z,12.93
2019-02-05T02:42:42.110Z,12.53
2019-02-05T02:45:15.698Z,13.03
2019-02-05T02:47:47.272Z,14.27
2019-02-05T02:50:22.814Z,11.23
2019-02-05T02:52:54.547Z,12.17
2019-02-05T02:55:26.122Z,13.23
2019-02-05T02:57:57.701Z,13.73
2019-02-05T03:00:29.357Z,13.80
2019-02-05T03:03:00.937Z,13.43
2019-02-05T03:05:33.012Z,14.50
2019-02-05T03:08:04.625Z,13.80
2019-02-05T03:10:36.184Z,10.40
2019-02-05T03:13:07.835Z,14.20
2019-02-05T03:15:39.517Z,12.23
2019-02-05T03:18:11.236Z,12.03
2019-02-05T03:20:42.797Z,11.90
2019-02-05T03:23:14.452Z,15.17
2019-02-05T03:25:46.032Z,13.83
2019-02-05T03:28:18.543Z,14.60
2019-02-05T03:30:50.133Z,15.13
2019-02-05T03:33:23.392Z,13.47
2019-02-05T03:35:54.961Z,14.97
2019-02-05T03:38:26.520Z,15.50
2019-02-05T03:41:25.659Z,13.37
2019-02-05T03:43:57.329Z,12.40
2019-02-05T03:46:29.442Z,14.53
2019-02-05T03:49:01.277Z,9.40
2019-02-05T03:51:40.853Z,15.40
2019-02-05T03:54:20.589Z,15.47
2019-02-05T03:57:03.916Z,14.83
2019-02-05T03:59:58.342Z,14.63
2019-02-05T04:02:49.979Z,12.87
2019-02-05T04:05:58.319Z,14.93
2019-02-05T04:08:56.200Z,13.73
2019-02-05T04:11:56.300Z,14.00
2019-02-05T04:14:54.131Z,16.33
2019-02-05T04:17:33.602Z,12.50
2019-02-05T04:20:54.980Z,15.07
2019-02-05T04:23:46.672Z,14.60
2019-02-05T04:26:34.881Z,14.27
2019-02-05T04:29:38.416Z,13.53
2019-02-05T04:32:15.251Z,14.47
2019-02-05T04:35:16.352Z,10.90
2019-02-05T04:38:11.316Z,12.40
2019-02-05T04:41:19.947Z,11.90
2019-02-05T04:44:05.302Z,12.60
2019-02-05T04:47:05.412Z,11.33
2019-02-05T04:49:47.721Z,10.70
2019-02-05T04:52:39.352Z,14.37
2019-02-05T04:55:41.316Z,15.00
2019-02-05T04:58:23.563Z,14.53
2019-02-05T05:01:12.232Z,12.87
2019-02-05T05:04:08.569Z,15.07
2019-02-05T05:06:48.485Z,13.40
2019-02-05T05:09:42.499Z,16.50
2019-02-05T05:12:14.266Z,15.33
2019-02-05T05:14:46.359Z,14.23
2019-02-05T05:17:17.998Z,16.30
2019-02-05T05:19:49.650Z,17.57
2019-02-05T05:22:21.324Z,14.73
2019-02-05T05:24:53.119Z,17.53
2019-02-05T05:27:25.525Z,16.33
2019-02-05T05:29:57.606Z,15.60
2019-02-05T05:32:29.235Z,16.87
2019-02-05T05:35:00.973Z,13.10
2019-02-05T05:37:32.569Z,16.07
2019-02-05T05:40:05.565Z,13.63
2019-02-05T05:42:37.182Z,16.13
2019-02-05T05:45:12.781Z,14.30
2019-02-05T05:47:45.023Z,16.03
2019-02-05T05:50:17.041Z,15.63
2019-02-05T05:52:48.643Z,17.33
2019-02-05T05:55:20.219Z,15.13
2019-02-05T05:57:51.825Z,12.23
2019-02-05T06:00:23.456Z,16.47
2019-02-05T06:02:55.149Z,19.47
2019-02-05T06:05:26.865Z,17.33
2019-02-05T06:07:58.602Z,16.77
2019-02-05T06:10:30.360Z,24.60
2019-02-05T06:13:02.009Z,22.13
2019-02-05T06:15:35.864Z,26.67
2019-02-05T06:18:06.966Z,29.67
2019-02-05T06:20:40.011Z,28.60
2019-02-05T06:23:11.733Z,26.70
2019-02-05T06:25:43.360Z,24.70
2019-02-05T06:28:15.026Z,24.27
2019-02-05T06:30:46.705Z,21.10
2019-02-05T06:33:18.757Z,22.43
2019-02-05T06:35:50.337Z,19.30
2019-02-05T06:38:22.035Z,22.57
2019-02-05T06:40:53.694Z,20.73
2019-02-05T06:43:25.401Z,21.53
2019-02-05T06:45:57.328Z,21.87
2019-02-05T06:48:29.008Z,18.57
2019-02-05T06:51:00.680Z,25.60
2019-02-05T06:53:32.277Z,24.77
2019-02-05T06:56:03.967Z,23.00
2019-02-05T06:58:46.040Z,22.77
2019-02-05T07:01:08.972Z,17.57
2019-02-05T07:03:40.569Z,23.93
2019-02-05T07:06:12.161Z,20.90
2019-02-05T07:08:43.764Z,21.10
2019-02-05T07:11:15.411Z,20.40
2019-02-05T07:13:47.208Z,20.17
2019-02-05T07:16:18.824Z,19.53
2019-02-05T07:18:50.606Z,16.43
2019-02-05T07:21:22.257Z,19.23
2019-02-05T07:23:54.002Z,16.47
2019-02-05T07:26:25.786Z,16.93
2019-02-05T07:29:01.516Z,15.33
2019-02-05T07:31:31.269Z,16.30
2019-02-05T07:34:02.887Z,18.83
2019-02-05T07:36:34.536Z,16.10
2019-02-05T07:39:08.739Z,13.60
2019-02-05T07:41:40.325Z,19.13
2019-02-05T07:44:11.936Z,17.27
2019-02-05T07:46:43.680Z,19.50
2019-02-05T07:49:15.440Z,17.70
2019-02-05T07:51:47.134Z,18.67
2019-02-05T07:54:19.015Z,18.87
2019-02-05T07:56:50.663Z,16.17
2019-02-05T07:59:22.447Z,16.67
2019-02-05T08:01:54.130Z,16.93
2019-02-05T08:04:25.735Z,18.20
2019-02-05T08:06:57.880Z,19.90
2019-02-05T08:09:30.355Z,18.23
2019-02-05T08:12:02.242Z,18.87
2019-02-05T08:14:33.963Z,18.40
2019-02-05T08:17:05.683Z,16.63
2019-02-05T08:19:37.449Z,22.17
2019-02-05T08:22:09.695Z,18.77
2019-02-05T08:24:41.466Z,18.90
2019-02-05T08:27:13.066Z,18.67
2019-02-05T08:29:44.725Z,18.40
2019-02-05T08:32:16.401Z,17.00
2019-02-05T08:34:47.999Z,21.47
2019-02-05T08:37:20.877Z,18.67
2019-02-05T08:39:52.671Z,18.50
2019-02-05T08:42:24.512Z,17.27
2019-02-05T08:44:56.329Z,18.20
2019-02-05T08:47:28.001Z,19.03
2019-02-05T08:49:59.584Z,19.47
2019-02-05T08:52:31.859Z,18.70
2019-02-05T08:55:03.546Z,21.83
2019-02-05T08:57:35.675Z,19.43
2019-02-05T09:00:26.765Z,20.00
2019-02-05T09:02:58.512Z,18.67
2019-02-05T09:05:30.173Z,17.47
2019-02-05T09:08:02.265Z,16.43
2019-02-05T09:10:40.042Z,18.53
2019-02-05T09:13:12.118Z,19.57
2019-02-05T09:15:43.894Z,17.97
2019-02-05T09:18:15.501Z,14.80
2019-02-05T09:20:47.221Z,15.87
2019-02-05T09:23:19.003Z,16.27
2019-02-05T09:25:50.582Z,16.50
2019-02-05T09:28:22.295Z,16.93
2019-02-05T09:30:53.868Z,16.77
2019-02-05T09:33:25.462Z,15.40
2019-02-05T09:35:57.202Z,15.63
2019-02-05T09:38:28.972Z,14.43
2019-02-05T09:41:00.863Z,13.70
2019-02-05T09:43:32.524Z,14.10
2019-02-05T09:46:04.221Z,12.10
2019-02-05T09:48:35.884Z,15.33
2019-02-05T09:51:07.556Z,15.13
2019-02-05T09:53:39.377Z,16.70
2019-02-05T09:56:11.035Z,17.90
2019-02-05T09:58:42.694Z,19.47
2019-02-05T10:01:14.288Z,17.47
2019-02-05T10:03:47.022Z,15.93
2019-02-05T10:06:18.665Z,13.20
2019-02-05T10:08:50.805Z,12.47
2019-02-05T10:11:22.409Z,13.83
2019-02-05T10:13:54.008Z,15.63
2019-02-05T10:16:25.621Z,13.90
2019-02-05T10:18:57.261Z,13.23
2019-02-05T10:21:29.026Z,13.20
2019-02-05T10:24:01.011Z,14.80
2019-02-05T10:26:32.887Z,15.73
2019-02-05T10:29:04.594Z,13.43
2019-02-05T10:31:36.176Z,11.53
2019-02-05T10:34:07.836Z,14.57
2019-02-05T10:36:39.452Z,14.30
2019-02-05T10:39:13.412Z,11.43
2019-02-05T10:41:45.072Z,13.80
2019-02-05T10:44:16.677Z,10.03
2019-02-05T10:46:48.376Z,10.73
2019-02-05T10:49:20.254Z,13.63
2019-02-05T10:51:51.926Z,15.30
2019-02-05T10:54:23.531Z,9.60
2019-02-05T10:56:55.114Z,11.13
2019-02-05T10:59:26.805Z,10.13
2019-02-05T11:01:58.945Z,9.60
2019-02-05T11:04:30.523Z,8.93
2019-02-05T11:07:02.132Z,11.23
2019-02-05T11:09:33.712Z,10.03
2019-02-05T11:12:05.669Z,9.13
2019-02-05T11:14:37.324Z,9.20
2019-02-05T11:17:08.972Z,11.70
2019-02-05T11:19:40.631Z,9.20
2019-02-05T11:22:12.320Z,9.23
2019-02-05T11:24:43.912Z,9.93
2019-02-05T11:27:15.511Z,9.27
2019-02-05T11:29:47.729Z,10.27
2019-02-05T11:32:20.223Z,13.33
2019-02-05T11:34:51.880Z,9.50
2019-02-05T11:37:23.471Z,9.13
2019-02-05T11:39:55.062Z,9.23
2019-02-05T11:42:27.166Z,10.47
2019-02-05T11:44:58.862Z,9.93
2019-02-05T11:47:30.493Z,7.67
2019-02-05T11:50:02.129Z,10.37
2019-02-05T11:52:33.866Z,9.20
2019-02-05T11:55:09.689Z,9.23
2019-02-05T11:57:41.421Z,9.67
2019-02-05T12:00:32.141Z,8.53
2019-02-05T12:02:56.804Z,9.23
2019-02-05T12:05:28.639Z,8.60
2019-02-05T12:08:00.682Z,10.03
2019-02-05T12:10:32.340Z,9.67
2019-02-05T12:13:03.928Z,9.50
2019-02-05T12:15:35.514Z,10.00
2019-02-05T12:18:08.054Z,9.10
2019-02-05T12:20:39.754Z,8.37
2019-02-05T12:23:11.392Z,7.97
2019-02-05T12:25:43.706Z,12.30
2019-02-05T12:28:15.359Z,12.67
2019-02-05T12:30:47.328Z,9.37
2019-02-05T12:33:18.978Z,9.93
2019-02-05T12:35:50.859Z,12.07
2019-02-05T12:38:22.558Z,10.37
2019-02-05T12:40:54.220Z,8.23
2019-02-05T12:43:25.901Z,10.80
2019-02-05T12:45:57.495Z,9.83
2019-02-05T12:48:29.479Z,8.60
2019-02-05T12:51:01.089Z,10.70
2019-02-05T12:53:32.691Z,9.43
2019-02-05T12:56:04.295Z,8.60
2019-02-05T12:58:35.938Z,11.83
2019-02-05T13:01:07.515Z,10.80
2019-02-05T13:03:39.312Z,9.00
2019-02-05T13:06:10.973Z,11.90
2019-02-05T13:08:42.658Z,10.00
2019-02-05T13:11:14.250Z,11.50
2019-02-05T13:13:45.917Z,11.77
2019-02-05T13:16:17.619Z,11.10
2019-02-05T13:18:51.930Z,12.23
2019-02-05T13:21:22.497Z,11.07
2019-02-05T13:23:54.247Z,10.97
2019-02-05T13:26:26.250Z,12.90
2019-02-05T13:28:57.993Z,11.20
2019-02-05T13:31:29.674Z,11.47
2019-02-05T13:34:01.345Z,11.47
2019-02-05T13:36:33.005Z,11.20
2019-02-05T13:39:08.860Z,10.63
2019-02-05T13:41:40.440Z,9.53
2019-02-05T13:44:12.108Z,11.07
2019-02-05T13:46:43.788Z,10.00
2019-02-05T13:49:15.498Z,10.33
2019-02-05T13:51:47.827Z,10.53
2019-02-05T13:54:19.481Z,11.07
2019-02-05T13:56:51.100Z,9.83
2019-02-05T13:59:22.729Z,9.93
2019-02-05T14:01:54.400Z,12.50
2019-02-05T14:04:26.077Z,11.23
2019-02-05T14:06:57.826Z,10.30
2019-02-05T14:09:29.432Z,13.40
2019-02-05T14:12:01.026Z,12.40
2019-02-05T14:14:32.636Z,13.33
2019-02-05T14:17:04.332Z,12.07
2019-02-05T14:19:36.058Z,13.43
2019-02-05T14:22:07.789Z,12.07
2019-02-05T14:24:39.415Z,14.57
2019-02-05T14:27:10.999Z,13.83
2019-02-05T14:29:42.833Z,13.87
2019-02-05T14:32:14.555Z,12.03
2019-02-05T14:34:46.247Z,14.07
2019-02-05T14:37:17.876Z,12.93
2019-02-05T14:39:50.015Z,13.30
2019-02-05T14:42:22.564Z,11.27
2019-02-05T14:44:54.158Z,12.23
2019-02-05T14:47:25.753Z,11.53
2019-02-05T14:49:57.382Z,12.73
2019-02-05T14:52:29.437Z,10.93
2019-02-05T14:55:01.042Z,12.60
2019-02-05T14:57:33.370Z,11.17
2019-02-05T15:00:08.611Z,12.93
2019-02-05T15:02:40.241Z,13.17
2019-02-05T15:05:12.414Z,11.23
2019-02-05T15:07:44.853Z,10.80
2019-02-05T15:10:19.610Z,11.70
2019-02-05T15:12:52.174Z,12.03
2019-02-05T15:15:27.150Z,10.80
2019-02-05T15:17:59.072Z,11.80
2019-02-05T15:20:38.907Z,12.97
2019-02-05T15:23:10.726Z,13.53
2019-02-05T15:25:42.473Z,14.93
2019-02-05T15:28:15.636Z,12.13
2019-02-05T15:30:47.405Z,12.50
2019-02-05T15:33:26.233Z,11.40
2019-02-05T15:36:02.414Z,11.87
2019-02-05T15:38:34.380Z,12.70
2019-02-05T15:41:06.062Z,13.03
2019-02-05T15:43:37.935Z,10.50
2019-02-05T15:46:09.560Z,10.87
2019-02-05T15:48:41.361Z,10.40
2019-02-05T15:51:13.241Z,14.27
2019-02-05T15:53:44.848Z,13.07
2019-02-05T15:56:16.554Z,12.73
2019-02-05T15:58:48.179Z,12.57
2019-02-05T16:01:20.346Z,13.20
2019-02-05T16:03:52.095Z,11.50
2019-02-05T16:06:24.360Z,10.83
2019-02-05T16:08:55.962Z,11.47
2019-02-05T16:11:27.562Z,11.33
2019-02-05T16:13:59.296Z,11.83
2019-02-05T16:16:31.369Z,11.87
2019-02-05T16:19:02.997Z,13.20
2019-02-05T16:21:34.688Z,12.53
2019-02-05T16:24:06.341Z,9.67
2019-02-05T16:26:37.911Z,12.00
2019-02-05T16:29:10.784Z,9.37
2019-02-05T16:31:42.459Z,12.17
2019-02-05T16:34:14.265Z,12.83
2019-02-05T16:36:48.615Z,11.80
2019-02-05T16:39:19.420Z,11.47
2019-02-05T16:41:51.060Z,10.77
2019-02-05T16:44:22.727Z,11.20
2019-02-05T16:46:54.823Z,11.50
2019-02-05T16:49:26.512Z,11.57
2019-02-05T16:51:58.157Z,11.67
2019-02-05T16:54:29.861Z,12.23
2019-02-05T16:57:01.556Z,11.90
2019-02-05T16:59:33.275Z,12.07
2019-02-05T17:02:05.340Z,11.23
2019-02-05T17:04:38.171Z,9.70
2019-02-05T17:07:09.883Z,13.00
2019-02-05T17:09:41.496Z,11.20
2019-02-05T17:12:13.311Z,11.33
2019-02-05T17:14:45.012Z,10.57
2019-02-05T17:17:16.758Z,12.80
2019-02-05T17:19:48.368Z,11.07
2019-02-05T17:22:19.958Z,12.10
2019-02-05T17:24:52.970Z,11.77
2019-02-05T17:27:25.628Z,12.57
2019-02-05T17:29:57.661Z,11.83
2019-02-05T17:32:39.673Z,12.00
2019-02-05T17:35:03.051Z,10.97
2019-02-05T17:37:35.225Z,11.13
2019-02-05T17:40:11.874Z,12.17
2019-02-05T17:42:45.328Z,11.53
2019-02-05T17:45:32.986Z,11.47
2019-02-05T17:48:10.200Z,10.57
2019-02-05T17:50:42.329Z,11.60
2019-02-05T17:53:14.058Z,12.00
2019-02-05T17:55:45.774Z,11.70
2019-02-05T17:58:17.433Z,11.57
2019-02-05T18:00:50.993Z,13.53
2019-02-05T18:03:23.033Z,13.07
2019-02-05T18:05:55.474Z,13.53
2019-02-05T18:08:27.048Z,11.17
2019-02-05T18:10:58.692Z,12.47
2019-02-05T18:13:30.283Z,12.80
2019-02-05T18:16:02.820Z,12.30
2019-02-05T18:18:34.412Z,12.30
2019-02-05T18:21:06.481Z,13.17
2019-02-05T18:23:38.231Z,12.87
2019-02-05T18:26:10.041Z,13.87
2019-02-05T18:28:41.943Z,14.40
2019-02-05T18:31:13.533Z,12.93
2019-02-05T18:33:45.198Z,14.53
2019-02-05T18:36:16.912Z,15.27
2019-02-05T18:38:48.570Z,13.67
2019-02-05T18:41:20.498Z,14.90
2019-02-05T18:43:52.163Z,14.63
2019-02-05T18:46:23.761Z,12.83
2019-02-05T18:49:04.703Z,12.67
2019-02-05T18:51:28.855Z,12.10
2019-02-05T18:54:00.520Z,13.33
2019-02-05T18:56:32.126Z,13.67
2019-02-05T18:59:03.705Z,12.53
2019-02-05T19:01:35.435Z,11.37
2019-02-05T19:04:07.105Z,13.80
2019-02-05T19:06:40.508Z,11.57
2019-02-05T19:09:13.650Z,9.47
2019-02-05T19:11:45.258Z,13.57
2019-02-05T19:14:16.982Z,11.90
2019-02-05T19:16:49.770Z,12.43
2019-02-05T19:19:21.477Z,11.30
2019-02-05T19:21:53.584Z,10.50
2019-02-05T19:24:32.953Z,11.93
2019-02-05T19:27:04.554Z,12.90
2019-02-05T19:29:36.866Z,12.33
2019-02-05T19:32:08.679Z,10.80
2019-02-05T19:34:40.340Z,14.03
2019-02-05T19:37:12.029Z,12.30
2019-02-05T19:39:43.644Z,14.60
2019-02-05T19:42:15.653Z,13.47
2019-02-05T19:44:48.911Z,14.97
2019-02-05T19:47:22.239Z,14.60
2019-02-05T19:49:54.096Z,15.73
2019-02-05T19:52:27.676Z,13.60
2019-02-05T19:54:59.028Z,13.63
2019-02-05T19:57:30.602Z,14.67
2019-02-05T20:00:02.574Z,13.70
2019-02-05T20:02:35.737Z,14.77
2019-02-05T20:05:10.696Z,14.50
2019-02-05T20:07:42.752Z,15.20
2019-02-05T20:10:17.297Z,13.50
2019-02-05T20:12:48.902Z,14.20
2019-02-05T20:15:20.622Z,12.60
2019-02-05T20:17:52.212Z,13.00
2019-02-05T20:20:23.978Z,11.27
2019-02-05T20:22:55.963Z,14.43
2019-02-05T20:25:27.590Z,12.73
2019-02-05T20:27:59.172Z,14.13
2019-02-05T20:30:30.765Z,14.23
2019-02-05T20:33:02.361Z,14.80
2019-02-05T20:35:34.325Z,12.87
2019-02-05T20:38:06.489Z,11.73
2019-02-05T20:40:38.427Z,14.37
2019-02-05T20:43:10.484Z,15.70
2019-02-05T20:45:42.325Z,12.70
2019-02-05T20:48:13.930Z,13.73
2019-02-05T20:50:45.632Z,14.50
2019-02-05T20:53:17.250Z,14.33
2019-02-05T20:55:48.876Z,14.93
2019-02-05T20:58:20.593Z,14.73
2019-02-05T21:00:52.187Z,14.10
2019-02-05T21:03:24.056Z,14.87
2019-02-05T21:05:56.668Z,14.23
2019-02-05T21:08:28.435Z,14.50
2019-02-05T21:11:00.140Z,13.13
2019-02-05T21:13:31.831Z,11.87
2019-02-05T21:16:03.794Z,15.10
2019-02-05T21:18:35.371Z,13.27
2019-02-05T21:21:06.971Z,13.33
2019-02-05T21:23:38.634Z,12.93
2019-02-05T21:26:10.220Z,14.20
2019-02-05T21:28:41.815Z,15.07
2019-02-05T21:31:13.497Z,13.17
2019-02-05T21:33:45.098Z,13.50
2019-02-05T21:36:16.765Z,15.40
2019-02-05T21:38:48.521Z,15.37
2019-02-05T21:41:20.185Z,12.00
2019-02-05T21:43:51.989Z,14.77
2019-02-05T21:46:23.772Z,16.30
2019-02-05T21:48:55.404Z,15.03
2019-02-05T21:51:26.975Z,15.10
2019-02-05T21:53:59.204Z,16.47
2019-02-05T21:56:31.074Z,15.50
2019-02-05T21:59:02.738Z,14.13
2019-02-05T22:01:34.427Z,17.33
2019-02-05T22:04:06.173Z,12.87
2019-02-05T22:06:37.872Z,14.67
2019-02-05T22:09:09.509Z,16.80
2019-02-05T22:11:41.300Z,14.43
2019-02-05T22:14:13.827Z,12.93
2019-02-05T22:16:45.438Z,14.17
2019-02-05T22:19:17.316Z,14.17
2019-02-05T22:21:48.983Z,12.97
2019-02-05T22:24:20.551Z,12.13
2019-02-05T22:26:52.282Z,13.53
2019-02-05T22:29:23.888Z,12.43
2019-02-05T22:31:55.721Z,13.83
2019-02-05T22:34:38.571Z,14.20
2019-02-05T22:37:03.628Z,13.17
2019-02-05T22:39:34.513Z,12.73
2019-02-05T22:42:06.453Z,13.37
2019-02-05T22:44:38.050Z,12.20
2019-02-05T22:47:09.763Z,12.33
2019-02-05T22:49:41.357Z,10.67
2019-02-05T22:52:12.979Z,13.53
2019-02-05T22:54:45.636Z,13.80
2019-02-05T22:57:17.440Z,14.50
2019-02-05T22:59:49.038Z,12.87
2019-02-05T23:02:20.628Z,13.43
2019-02-05T23:04:57.109Z,15.90
2019-02-05T23:07:28.768Z,12.20
2019-02-05T23:10:14.470Z,13.17
2019-02-05T23:12:46.772Z,12.47
2019-02-05T23:15:20.143Z,13.37
2019-02-05T23:17:51.721Z,13.50
2019-02-05T23:20:23.505Z,11.87
2019-02-05T23:22:57.187Z,10.97
2019-02-05T23:25:29.069Z,14.57
2019-02-05T23:28:01.157Z,13.17
2019-02-05T23:30:32.780Z,11.67
2019-02-05T23:33:04.593Z,11.37
2019-02-05T23:35:36.197Z,13.50
2019-02-05T23:38:07.799Z,13.60
2019-02-05T23:40:39.486Z,11.70
2019-02-05T23:43:11.321Z,12.73
2019-02-05T23:45:43.333Z,13.77
2019-02-05T23:48:14.917Z,12.87
2019-02-05T23:50:46.651Z,13.23
2019-02-05T23:53:18.336Z,12.77
2019-02-05T23:55:49.998Z,13.97
2019-02-05T23:58:22.126Z,12.83
